Estrella — DJ7286 — position and weather

sailwx.info

Track history (hours):
 
Tides and Currents Weather Stations Pressure Air Temp Water Temp Dewpoint Dewpoint Depression Visibility Wind Speed Wind Dir Waves Ship Positions

Estrella

Last reported at 2018-May-30 06:31 UTC. Time now 2018-Jun-20 17:10 UTC.
Position N 55°01' E 014°23'.
Warning: this ship's position is 21 days out of date.

Length 15 m.

Type: Sailing vessel. MMSI: 211676770.

Date/timePositionNaut miles runAvg speedWind from/ knotsBaromVisibWave heightAir tempDewpointWater temp
2018-May-30 06:31N 55°01' E 014°23'0 8.1
2018-May-30 06:29N 55°01' E 014°23'4 8.0
2018-May-30 06:00N 55°03' E 014°30'4 7.8
2018-May-30 05:30N 55°05' E 014°36'4 7.4
2018-May-30 04:59N 55°06' E 014°42'0 0.2
2018-May-30 04:30N 55°06' E 014°42'0 0.0
2018-May-29 19:58N 55°06' E 014°42'0 0.0
2018-May-29 19:18N 55°06' E 014°42'0 0.0
2018-May-29 19:00N 55°06' E 014°42'0 0.0
2018-May-29 18:30N 55°06' E 014°42'0 0.0
2018-May-29 18:00N 55°06' E 014°42'0 0.0
2018-May-29 17:30N 55°06' E 014°42'0 0.0
2018-May-29 17:00N 55°06' E 014°42'0 0.0
2018-May-29 16:30N 55°06' E 014°42'0 0.0
2018-May-29 16:00N 55°06' E 014°42'0 0.0
2018-May-29 15:30N 55°06' E 014°42'0 0.0
2018-May-29 15:00N 55°06' E 014°42'0 0.0
2018-May-28 15:17N 55°06' E 014°42'0 0.0
2018-May-28 14:59N 55°06' E 014°42'0 0.0
2018-May-28 14:29N 55°06' E 014°42'0 0.0
2018-May-28 13:59N 55°06' E 014°42'1 2.4
2018-May-28 13:30N 55°06' E 014°40'4 7.8
2018-May-28 12:59N 55°05' E 014°33'4 8.0
2018-May-28 12:30N 55°03' E 014°27'15 7.5
2018-May-28 10:27N 54°55' E 014°04'  
Track history (hours):
 
Tides and Currents Weather Stations Pressure Air Temp Water Temp Dewpoint Dewpoint Depression Visibility Wind Speed Wind Dir Waves Ship Positions

Estrella

Last reported at 2018-May-30 06:31 UTC. Time now 2018-Jun-20 17:10 UTC.
Position N 55°01' E 014°23'.
Warning: this ship's position is 21 days out of date.

Length 15 m.

Type: Sailing vessel. MMSI: 211676770.

Date/timePositionNaut miles runAvg speedWind from/ knotsBaromVisibWave heightAir tempDewpointWater temp
2018-May-30 06:31N 55°01' E 014°23'0 8.1
2018-May-30 06:29N 55°01' E 014°23'4 8.0
2018-May-30 06:00N 55°03' E 014°30'4 7.8
2018-May-30 05:30N 55°05' E 014°36'4 7.4
2018-May-30 04:59N 55°06' E 014°42'0 0.2
2018-May-30 04:30N 55°06' E 014°42'0 0.0
2018-May-29 19:58N 55°06' E 014°42'0 0.0
2018-May-29 19:18N 55°06' E 014°42'0 0.0
2018-May-29 19:00N 55°06' E 014°42'0 0.0
2018-May-29 18:30N 55°06' E 014°42'0 0.0
2018-May-29 18:00N 55°06' E 014°42'0 0.0
2018-May-29 17:30N 55°06' E 014°42'0 0.0
2018-May-29 17:00N 55°06' E 014°42'0 0.0
2018-May-29 16:30N 55°06' E 014°42'0 0.0
2018-May-29 16:00N 55°06' E 014°42'0 0.0
2018-May-29 15:30N 55°06' E 014°42'0 0.0
2018-May-29 15:00N 55°06' E 014°42'0 0.0
2018-May-28 15:17N 55°06' E 014°42'0 0.0
2018-May-28 14:59N 55°06' E 014°42'0 0.0
2018-May-28 14:29N 55°06' E 014°42'0 0.0
2018-May-28 13:59N 55°06' E 014°42'1 2.4
2018-May-28 13:30N 55°06' E 014°40'4 7.8
2018-May-28 12:59N 55°05' E 014°33'4 8.0
2018-May-28 12:30N 55°03' E 014°27'15 7.5
2018-May-28 10:27N 54°55' E 014°04'  

Dump ship's entire track history